createdAt,value
2022-11-22T00:00:56.096Z,97177.94
2022-11-22T00:03:23.979Z,97172.34
2022-11-22T00:05:52.201Z,97180.28
2022-11-22T00:08:20.154Z,97179.25
2022-11-22T00:10:49.857Z,97178.97
2022-11-22T00:13:19.719Z,97178.66
2022-11-22T00:15:59.554Z,97177.91
2022-11-22T00:18:27.532Z,97176.13
2022-11-22T00:20:55.420Z,97180.56
2022-11-22T00:23:23.530Z,97176.03
2022-11-22T00:25:51.603Z,97183.47
2022-11-22T00:28:20.933Z,97170.00
2022-11-22T00:30:48.880Z,97176.13
2022-11-22T00:33:16.877Z,97186.78
2022-11-22T00:35:46.644Z,97184.53
2022-11-22T00:38:14.607Z,97192.94
2022-11-22T00:40:42.631Z,97188.66
2022-11-22T00:43:10.604Z,97192.19
2022-11-22T00:45:41.953Z,97193.09
2022-11-22T00:48:09.868Z,97191.47
2022-11-22T00:50:37.831Z,97196.50
2022-11-22T00:53:05.853Z,97200.91
2022-11-22T00:55:33.753Z,97199.59
2022-11-22T00:58:01.882Z,97194.75
2022-11-22T01:00:29.870Z,97196.75
2022-11-22T01:02:59.210Z,97203.91
2022-11-22T01:05:27.134Z,97218.63
2022-11-22T01:07:55.269Z,97196.06
2022-11-22T01:10:23.903Z,97208.50
2022-11-22T01:12:51.818Z,97211.25
2022-11-22T01:15:19.882Z,97206.25
2022-11-22T01:17:47.785Z,97213.38
2022-11-22T01:20:17.096Z,97220.34
2022-11-22T01:22:45.122Z,97223.16
2022-11-22T01:25:13.343Z,97227.81
2022-11-22T01:27:41.344Z,97226.53
2022-11-22T01:30:10.141Z,97228.41
2022-11-22T01:32:38.023Z,97227.66
2022-11-22T01:35:06.648Z,97223.03
2022-11-22T01:37:36.253Z,97221.66
2022-11-22T01:40:04.550Z,97222.69
2022-11-22T01:42:44.574Z,97225.91
2022-11-22T01:45:50.027Z,97222.53
2022-11-22T01:48:39.085Z,97219.66
2022-11-22T01:51:15.571Z,97216.59
2022-11-22T01:53:45.363Z,97215.84
2022-11-22T01:56:18.027Z,97208.75
2022-11-22T01:58:50.145Z,97209.69
2022-11-22T02:01:18.252Z,97202.22
2022-11-22T02:03:50.765Z,97203.47
2022-11-22T02:06:19.886Z,97202.88
2022-11-22T02:08:56.204Z,97202.47
2022-11-22T02:11:30.990Z,97208.13
2022-11-22T02:14:01.969Z,97204.78
2022-11-22T02:16:30.089Z,97203.19
2022-11-22T02:18:58.030Z,97205.03
2022-11-22T02:21:25.986Z,97204.59
2022-11-22T02:23:58.689Z,97193.59
2022-11-22T02:26:30.329Z,97193.28
2022-11-22T02:29:05.269Z,97192.28
2022-11-22T02:31:39.367Z,97196.00
2022-11-22T02:34:07.379Z,97176.91
2022-11-22T02:36:39.704Z,97178.00
2022-11-22T02:39:10.165Z,97176.50
2022-11-22T02:41:39.966Z,97170.78
2022-11-22T02:44:10.600Z,97174.41
2022-11-22T02:46:48.040Z,97172.00
2022-11-22T02:49:18.715Z,97180.34
2022-11-22T02:51:46.977Z,97178.75
2022-11-22T02:54:15.179Z,97175.25
2022-11-22T02:56:44.769Z,97169.03
2022-11-22T02:59:12.731Z,97166.31
2022-11-22T03:01:40.943Z,97177.81
2022-11-22T03:04:08.933Z,97174.78
2022-11-22T03:06:37.065Z,97171.69
2022-11-22T03:09:04.954Z,97164.72
2022-11-22T03:11:32.891Z,97162.91
2022-11-22T03:14:02.154Z,97156.09
2022-11-22T03:16:30.902Z,97160.75
2022-11-22T03:18:58.796Z,97159.50
2022-11-22T03:21:26.820Z,97153.28
2022-11-22T03:23:55.840Z,97157.09
2022-11-22T03:26:23.793Z,97165.84
2022-11-22T03:28:51.748Z,97168.28
2022-11-22T03:31:21.129Z,97170.56
2022-11-22T03:33:49.204Z,97170.69
2022-11-22T03:36:17.082Z,97170.09
2022-11-22T03:38:45.337Z,97170.22
2022-11-22T03:41:15.385Z,97169.75
2022-11-22T03:43:43.338Z,97167.47
2022-11-22T03:46:15.770Z,97170.06
2022-11-22T03:48:45.061Z,97163.38
2022-11-22T03:51:13.221Z,97161.75
2022-11-22T03:53:41.099Z,97161.59
2022-11-22T03:56:09.144Z,97158.09
2022-11-22T03:58:37.012Z,97162.91
2022-11-22T04:01:05.098Z,97160.63
2022-11-22T04:03:33.199Z,97154.72
2022-11-22T04:06:02.801Z,97165.75
2022-11-22T04:08:30.780Z,97162.88
2022-11-22T04:10:58.744Z,97171.97
2022-11-22T04:13:47.320Z,97170.63
2022-11-22T04:16:14.454Z,97176.69
2022-11-22T04:18:42.558Z,97169.25
2022-11-22T04:21:29.516Z,97171.81
2022-11-22T04:24:11.368Z,97167.63
2022-11-22T04:26:39.428Z,97164.88
2022-11-22T04:29:10.143Z,97159.63
2022-11-22T04:31:55.866Z,97157.47
2022-11-22T04:34:24.417Z,97158.22
2022-11-22T04:36:53.750Z,97151.41
2022-11-22T04:39:21.798Z,97149.16
2022-11-22T04:42:10.399Z,97139.91
2022-11-22T04:44:42.999Z,97149.94
2022-11-22T04:47:12.110Z,97155.97
2022-11-22T04:49:40.130Z,97148.53
2022-11-22T04:52:28.241Z,97149.00
2022-11-22T04:54:56.205Z,97146.28
2022-11-22T04:57:24.129Z,97151.56
2022-11-22T04:59:52.222Z,97152.19
2022-11-22T05:02:20.213Z,97153.97
2022-11-22T05:04:50.825Z,97157.78
2022-11-22T05:07:22.373Z,97157.78
2022-11-22T05:09:50.281Z,97156.25
2022-11-22T05:12:18.265Z,97154.91
2022-11-22T05:14:46.158Z,97164.16
2022-11-22T05:17:14.105Z,97166.59
2022-11-22T05:19:47.789Z,97166.13
2022-11-22T05:22:17.246Z,97161.13
2022-11-22T05:24:45.624Z,97162.34
2022-11-22T05:27:13.537Z,97160.09
2022-11-22T05:29:41.478Z,97169.47
2022-11-22T05:32:09.471Z,97166.88
2022-11-22T05:34:37.437Z,97159.16
2022-11-22T05:37:05.457Z,97142.38
2022-11-22T05:39:33.407Z,97155.69
2022-11-22T05:42:05.901Z,97155.97
2022-11-22T05:44:34.165Z,97150.69
2022-11-22T05:47:02.117Z,97151.91
2022-11-22T05:49:30.328Z,97160.69
2022-11-22T05:51:58.476Z,97161.13
2022-11-22T05:54:26.469Z,97166.41
2022-11-22T05:56:54.389Z,97166.75
2022-11-22T05:59:23.912Z,97171.28
2022-11-22T06:01:51.807Z,97165.97
2022-11-22T06:04:19.951Z,97168.84
2022-11-22T06:06:47.984Z,97160.50
2022-11-22T06:09:16.116Z,97166.56
2022-11-22T06:11:44.078Z,97167.03
2022-11-22T06:14:12.042Z,97162.63
2022-11-22T06:16:41.327Z,97172.47
2022-11-22T06:19:09.413Z,97177.31
2022-11-22T06:21:37.392Z,97173.84
2022-11-22T06:24:05.713Z,97175.34
2022-11-22T06:26:39.095Z,97170.53
2022-11-22T06:29:07.612Z,97170.34
2022-11-22T06:31:35.621Z,97166.13
2022-11-22T06:34:06.002Z,97176.84
2022-11-22T06:36:35.910Z,97182.28
2022-11-22T06:39:04.094Z,97187.59
2022-11-22T06:41:34.767Z,97182.13
2022-11-22T06:44:06.638Z,97187.28
2022-11-22T06:46:35.348Z,97185.81
2022-11-22T06:49:05.082Z,97183.50
2022-11-22T06:51:33.779Z,97178.75
2022-11-22T06:54:01.814Z,97192.81
2022-11-22T06:56:31.826Z,97193.28
2022-11-22T06:59:03.187Z,97192.31
2022-11-22T07:01:31.720Z,97190.31
2022-11-22T07:04:00.609Z,97189.19
2022-11-22T07:06:31.640Z,97199.78
2022-11-22T07:09:00.512Z,97196.75
2022-11-22T07:11:32.750Z,97198.44
2022-11-22T07:14:07.498Z,97197.88
2022-11-22T07:16:37.040Z,97194.72
2022-11-22T07:19:05.559Z,97198.63
2022-11-22T07:21:37.432Z,97202.69
2022-11-22T07:24:07.671Z,97209.09
2022-11-22T07:26:35.848Z,97213.19
2022-11-22T07:29:04.152Z,97211.22
2022-11-22T07:31:32.164Z,97218.03
2022-11-22T07:34:00.163Z,97218.06
2022-11-22T07:36:29.647Z,97221.53
2022-11-22T07:38:59.395Z,97222.13
2022-11-22T07:41:27.414Z,97214.72
2022-11-22T07:43:55.805Z,97213.50
2022-11-22T07:46:26.460Z,97214.22
2022-11-22T07:48:54.522Z,97208.34
2022-11-22T07:51:22.771Z,97212.25
2022-11-22T07:53:50.783Z,97199.50
2022-11-22T07:56:20.419Z,97196.19
2022-11-22T07:58:48.544Z,97192.53
2022-11-22T08:01:18.363Z,97194.97
2022-11-22T08:03:47.218Z,97195.22
2022-11-22T08:06:16.625Z,97210.09
2022-11-22T08:08:45.698Z,97209.88
2022-11-22T08:11:14.372Z,97210.47
2022-11-22T08:13:44.684Z,97200.63
2022-11-22T08:16:15.044Z,97200.63
2022-11-22T08:18:47.117Z,97216.78
2022-11-22T08:21:15.931Z,97215.28
2022-11-22T08:23:44.504Z,97210.84
2022-11-22T08:26:14.516Z,97215.81
2022-11-22T08:28:44.751Z,97218.25
2022-11-22T08:31:14.938Z,97220.19
2022-11-22T08:33:43.185Z,97229.97
2022-11-22T08:36:11.346Z,97222.56
2022-11-22T08:38:39.700Z,97224.28
2022-11-22T08:41:08.419Z,97236.53
2022-11-22T08:43:36.647Z,97241.81
2022-11-22T08:46:06.577Z,97249.50
2022-11-22T08:48:36.814Z,97249.03
2022-11-22T08:51:07.343Z,97245.25
2022-11-22T08:53:37.343Z,97248.34
2022-11-22T08:56:07.087Z,97243.97
2022-11-22T08:58:35.593Z,97248.97
2022-11-22T09:01:08.412Z,97240.63
2022-11-22T09:03:37.126Z,97248.50
2022-11-22T09:09:08.738Z,97235.53
2022-11-22T09:11:42.017Z,97229.69
2022-11-22T09:14:09.957Z,97230.41
2022-11-22T09:16:39.245Z,97218.09
2022-11-22T09:19:07.259Z,97210.13
2022-11-22T09:21:35.266Z,97212.78
2022-11-22T09:24:03.342Z,97217.31
2022-11-22T09:26:31.423Z,97224.22
2022-11-22T09:28:59.296Z,97231.31
2022-11-22T09:31:27.229Z,97227.34
2022-11-22T09:33:56.503Z,97230.75
2022-11-22T09:36:26.952Z,97234.56
2022-11-22T09:38:56.208Z,97233.50
2022-11-22T09:42:05.334Z,97232.81
2022-11-22T09:44:43.399Z,97234.78
2022-11-22T09:47:22.957Z,97231.16
2022-11-22T09:50:04.587Z,97230.91
2022-11-22T09:52:38.317Z,97217.31
2022-11-22T09:55:12.332Z,97216.47
2022-11-22T09:57:45.607Z,97215.63
2022-11-22T10:00:20.924Z,97222.59
2022-11-22T10:03:00.343Z,97215.22
2022-11-22T10:05:35.746Z,97210.81
2022-11-22T10:08:27.278Z,97216.47
2022-11-22T10:10:58.643Z,97217.69
2022-11-22T10:13:32.571Z,97215.25
2022-11-22T10:16:09.927Z,97213.47
2022-11-22T10:18:43.333Z,97205.97
2022-11-22T10:21:14.393Z,97202.56
2022-11-22T10:23:44.306Z,97195.00
2022-11-22T10:26:23.290Z,97195.25
2022-11-22T10:29:05.326Z,97199.44
2022-11-22T10:31:42.279Z,97198.31
2022-11-22T10:34:20.005Z,97202.94
2022-11-22T10:36:57.064Z,97217.00
2022-11-22T10:39:42.439Z,97208.59
2022-11-22T10:42:24.361Z,97206.50
2022-11-22T10:45:01.947Z,97210.47
2022-11-22T10:47:54.195Z,97205.09
2022-11-22T10:50:27.681Z,97208.56
2022-11-22T10:53:06.711Z,97199.66
2022-11-22T10:55:53.059Z,97195.34
2022-11-22T10:58:33.936Z,97186.31
2022-11-22T11:01:08.425Z,97196.81
2022-11-22T11:03:40.120Z,97185.09
2022-11-22T11:06:24.526Z,97180.03
2022-11-22T11:11:56.189Z,97161.13
2022-11-22T11:14:33.890Z,97169.28
2022-11-22T11:17:03.963Z,97159.38
2022-11-22T11:19:38.274Z,97152.28
2022-11-22T11:22:26.122Z,97154.59
2022-11-22T11:25:31.595Z,97154.19
2022-11-22T11:28:03.900Z,97145.63
2022-11-22T11:30:40.080Z,97151.16
2022-11-22T11:33:19.533Z,97145.00
2022-11-22T11:35:48.410Z,97154.75
2022-11-22T11:38:36.408Z,97153.50
2022-11-22T11:41:25.212Z,97150.44
2022-11-22T11:43:54.148Z,97149.16
2022-11-22T11:46:23.760Z,97146.69
2022-11-22T11:48:53.330Z,97156.97
2022-11-22T11:51:38.653Z,97143.22
2022-11-22T11:54:12.134Z,97144.63
2022-11-22T11:56:52.306Z,97138.28
2022-11-22T11:59:22.334Z,97145.28
2022-11-22T12:01:58.482Z,97140.94
2022-11-22T12:04:29.933Z,97143.44
2022-11-22T12:07:04.244Z,97140.47
2022-11-22T12:09:37.537Z,97147.53
2022-11-22T12:12:31.157Z,97150.59
2022-11-22T12:15:11.927Z,97149.69
2022-11-22T12:17:50.010Z,97155.78
2022-11-22T12:20:23.155Z,97140.28
2022-11-22T12:23:08.039Z,97147.50
2022-11-22T12:25:45.168Z,97146.44
2022-11-22T12:28:19.990Z,97143.34
2022-11-22T12:30:54.262Z,97134.41
2022-11-22T12:33:28.697Z,97133.81
2022-11-22T12:35:58.548Z,97133.69
2022-11-22T12:38:33.025Z,97125.31
2022-11-22T12:41:04.543Z,97116.84
2022-11-22T12:43:39.129Z,97116.97
2022-11-22T12:46:13.059Z,97116.72
2022-11-22T12:48:48.911Z,97110.16
2022-11-22T12:51:24.904Z,97107.75
2022-11-22T12:53:54.225Z,97104.69
2022-11-22T12:56:33.382Z,97099.50
2022-11-22T12:59:14.759Z,97097.13
2022-11-22T13:01:48.947Z,97104.09
2022-11-22T13:04:23.736Z,97096.00
2022-11-22T13:06:58.776Z,97090.03
2022-11-22T13:09:31.575Z,97085.03
2022-11-22T13:12:04.164Z,97097.78
2022-11-22T13:14:36.976Z,97097.59
2022-11-22T13:17:08.316Z,97103.91
2022-11-22T13:19:47.083Z,97090.34
2022-11-22T13:22:26.870Z,97102.63
2022-11-22T13:25:10.450Z,97092.38
2022-11-22T13:27:44.373Z,97099.38
2022-11-22T13:30:20.727Z,97103.09
2022-11-22T13:32:52.045Z,97108.09
2022-11-22T13:35:27.724Z,97100.16
2022-11-22T13:37:58.032Z,97093.78
2022-11-22T13:40:32.108Z,97096.72
2022-11-22T13:43:50.410Z,97097.69
2022-11-22T13:46:54.464Z,97093.66
2022-11-22T13:49:41.093Z,97091.69
2022-11-22T13:52:51.345Z,97082.91
2022-11-22T13:55:36.013Z,97085.28
2022-11-22T13:58:55.644Z,97092.78
2022-11-22T14:01:59.135Z,97089.06
2022-11-22T14:04:45.219Z,97105.97
2022-11-22T14:07:35.843Z,97102.06
2022-11-22T14:10:05.187Z,97110.41
2022-11-22T14:13:18.418Z,97106.94
2022-11-22T14:15:58.271Z,97097.88
2022-11-22T14:18:52.805Z,97101.19
2022-11-22T14:21:41.564Z,97098.97
2022-11-22T14:24:15.426Z,97104.25
2022-11-22T14:26:54.503Z,97098.56
2022-11-22T14:29:53.785Z,97089.53
2022-11-22T14:32:23.801Z,97094.38
2022-11-22T14:35:26.370Z,97107.19
2022-11-22T14:38:03.863Z,97104.72
2022-11-22T14:40:37.531Z,97098.94
2022-11-22T14:43:35.528Z,97100.97
2022-11-22T14:46:37.355Z,97105.66
2022-11-22T14:49:07.735Z,97105.53
2022-11-22T14:51:37.837Z,97104.66
2022-11-22T14:54:20.538Z,97101.31
2022-11-22T14:56:49.440Z,97108.56
2022-11-22T14:59:37.023Z,97104.56
2022-11-22T15:02:31.331Z,97096.22
2022-11-22T15:09:13.282Z,97101.97
2022-11-22T15:09:21.983Z,97100.97
2022-11-22T15:11:29.591Z,97099.50
2022-11-22T15:14:46.465Z,97094.00
2022-11-22T15:57:38.117Z,97126.88
2022-11-22T16:00:12.197Z,97130.22
2022-11-22T16:02:48.693Z,97125.97
2022-11-22T16:06:08.153Z,97131.00
2022-11-22T16:08:15.570Z,97136.44
2022-11-22T16:10:45.668Z,97128.81
2022-11-22T16:13:29.144Z,97120.53
2022-11-22T16:16:08.884Z,97132.03
2022-11-22T16:18:37.071Z,97136.91
2022-11-22T16:21:07.262Z,97140.78
2022-11-22T16:23:37.434Z,97142.00
2022-11-22T16:26:24.886Z,97138.06
2022-11-22T16:28:55.369Z,97132.13
2022-11-22T16:31:24.976Z,97136.06
2022-11-22T16:33:54.735Z,97139.59
2022-11-22T16:36:24.776Z,97142.88
2022-11-22T16:38:52.707Z,97139.28
2022-11-22T16:41:23.706Z,97141.66
2022-11-22T16:43:57.774Z,97146.91
2022-11-22T16:46:25.765Z,97138.59
2022-11-22T16:48:54.402Z,97153.03
2022-11-22T16:51:24.715Z,97151.78
2022-11-22T16:53:54.273Z,97160.09
2022-11-22T16:56:23.429Z,97155.00
2022-11-22T16:58:52.695Z,97156.34
2022-11-22T17:01:24.178Z,97148.22
2022-11-22T17:03:54.371Z,97149.63
2022-11-22T17:06:24.437Z,97145.09
2022-11-22T17:08:54.523Z,97148.56
2022-11-22T17:11:24.889Z,97138.31
2022-11-22T17:13:53.146Z,97140.38
2022-11-22T17:16:22.664Z,97148.28
2022-11-22T17:18:50.693Z,97151.41
2022-11-22T17:21:25.763Z,97160.28
2022-11-22T17:23:55.909Z,97161.03
2022-11-22T17:26:24.607Z,97161.88
2022-11-22T17:28:52.667Z,97157.19
2022-11-22T17:31:23.481Z,97151.44
2022-11-22T17:33:52.458Z,97156.88
2022-11-22T17:36:26.395Z,97159.59
2022-11-22T17:38:54.361Z,97153.78
2022-11-22T17:41:22.633Z,97160.28
2022-11-22T17:43:51.747Z,97154.06
2022-11-22T17:46:20.058Z,97158.78
2022-11-22T17:48:54.095Z,97165.84
2022-11-22T17:51:22.695Z,97159.25
2022-11-22T17:53:50.741Z,97163.69
2022-11-22T17:56:18.684Z,97162.84
2022-11-22T17:58:46.889Z,97174.22
2022-11-22T18:01:16.483Z,97168.66
2022-11-22T18:03:45.477Z,97166.75
2022-11-22T18:06:16.002Z,97174.03
2022-11-22T18:08:47.197Z,97181.22
2022-11-22T18:11:16.174Z,97166.97
2022-11-22T18:13:44.640Z,97177.22
2022-11-22T18:16:15.713Z,97176.34
2022-11-22T18:18:59.530Z,97183.09
2022-11-22T18:21:30.282Z,97189.38
2022-11-22T18:23:58.836Z,97190.16
2022-11-22T18:26:42.986Z,97180.19
2022-11-22T18:32:01.438Z,97181.66
2022-11-22T18:34:29.599Z,97183.63
2022-11-22T18:37:03.832Z,97181.47
2022-11-22T18:39:33.941Z,97184.63
2022-11-22T18:42:02.494Z,97177.53
2022-11-22T18:44:30.524Z,97181.53
2022-11-22T18:46:58.456Z,97174.38
2022-11-22T18:49:26.419Z,97180.69
2022-11-22T18:51:54.477Z,97166.72
2022-11-22T18:54:23.840Z,97170.25
2022-11-22T18:56:51.814Z,97163.22
2022-11-22T18:59:20.053Z,97174.19
2022-11-22T19:01:48.232Z,97166.38
2022-11-22T19:04:17.036Z,97171.69
2022-11-22T19:06:45.995Z,97176.31
2022-11-22T19:09:14.072Z,97181.16
2022-11-22T19:11:43.544Z,97180.97
2022-11-22T19:14:11.486Z,97173.53
2022-11-22T19:16:39.501Z,97179.94
2022-11-22T19:19:08.464Z,97179.00
2022-11-22T19:21:36.409Z,97184.59
2022-11-22T19:24:04.766Z,97186.38
2022-11-22T19:26:32.836Z,97185.88
2022-11-22T19:29:02.888Z,97184.25
2022-11-22T19:31:31.691Z,97183.97
2022-11-22T19:34:00.104Z,97176.09
2022-11-22T19:36:33.778Z,97185.56
2022-11-22T19:39:03.765Z,97188.34
2022-11-22T19:41:32.054Z,97189.13
2022-11-22T19:44:00.154Z,97191.66
2022-11-22T19:46:30.133Z,97193.94
2022-11-22T19:48:59.767Z,97183.78
2022-11-22T19:51:30.982Z,97191.06
2022-11-22T19:54:02.242Z,97188.38
2022-11-22T19:56:32.936Z,97189.91
2022-11-22T19:59:02.405Z,97191.13
2022-11-22T20:01:33.662Z,97195.47
2022-11-22T20:04:04.514Z,97195.47
2022-11-22T20:06:33.524Z,97197.44
2022-11-22T20:09:02.904Z,97197.03
2022-11-22T20:11:30.825Z,97199.16
2022-11-22T20:13:59.058Z,97207.03
2022-11-22T20:16:29.074Z,97208.75
2022-11-22T20:18:59.797Z,97203.59
2022-11-22T20:21:33.970Z,97207.25
2022-11-22T20:24:02.910Z,97206.97
2022-11-22T20:26:32.459Z,97208.47
2022-11-22T20:29:02.217Z,97215.78
2022-11-22T20:31:32.165Z,97209.97
2022-11-22T20:34:03.118Z,97218.16
2022-11-22T20:36:32.295Z,97207.25
2022-11-22T20:39:04.161Z,97205.59
2022-11-22T20:41:37.290Z,97198.28
2022-11-22T20:44:06.769Z,97192.56
2022-11-22T20:46:37.760Z,97194.53
2022-11-22T20:49:07.821Z,97186.19
2022-11-22T20:51:39.659Z,97192.28
2022-11-22T20:54:08.622Z,97191.41
2022-11-22T20:56:37.254Z,97202.59
2022-11-22T20:59:05.304Z,97206.53
2022-11-22T21:01:33.509Z,97195.34
2022-11-22T21:04:01.549Z,97206.38
2022-11-22T21:06:32.878Z,97206.19
2022-11-22T21:09:00.860Z,97210.31
2022-11-22T21:11:31.049Z,97208.00
2022-11-22T21:13:59.733Z,97205.00
2022-11-22T21:16:30.071Z,97213.16
2022-11-22T21:19:01.045Z,97216.66
2022-11-22T21:21:31.673Z,97213.34
2022-11-22T21:24:01.513Z,97219.88
2022-11-22T21:26:30.419Z,97217.56
2022-11-22T21:28:59.461Z,97211.38
2022-11-22T21:31:28.297Z,97218.50
2022-11-22T21:33:56.278Z,97212.13
2022-11-22T21:36:24.195Z,97203.19
2022-11-22T21:38:53.593Z,97200.47
2022-11-22T21:41:40.318Z,97194.72
2022-11-22T21:44:09.536Z,97202.00
2022-11-22T21:46:37.870Z,97210.63
2022-11-22T21:49:05.830Z,97208.34
2022-11-22T21:51:33.870Z,97210.91
2022-11-22T21:54:03.710Z,97206.97
2022-11-22T21:56:31.928Z,97215.16
2022-11-22T21:59:00.167Z,97216.84
2022-11-22T22:01:28.489Z,97216.09
2022-11-22T22:03:56.524Z,97218.06
2022-11-22T22:06:25.209Z,97213.81
2022-11-22T22:08:53.421Z,97217.16
2022-11-22T22:11:23.133Z,97211.84
2022-11-22T22:13:53.311Z,97208.19
2022-11-22T22:16:23.657Z,97203.50
2022-11-22T22:18:51.713Z,97194.41
2022-11-22T22:21:20.439Z,97198.97
2022-11-22T22:23:48.644Z,97202.75
2022-11-22T22:26:18.277Z,97206.53
2022-11-22T22:28:47.790Z,97196.84
2022-11-22T22:31:21.568Z,97202.28
2022-11-22T22:33:51.224Z,97200.47
2022-11-22T22:36:20.098Z,97201.97
2022-11-22T22:38:48.285Z,97201.53
2022-11-22T22:41:16.292Z,97201.06
2022-11-22T22:43:46.487Z,97208.47
2022-11-22T22:46:17.512Z,97213.47
2022-11-22T22:48:46.053Z,97221.66
2022-11-22T22:51:16.468Z,97217.72
2022-11-22T22:53:46.553Z,97226.06
2022-11-22T22:56:15.978Z,97215.91
2022-11-22T22:58:44.545Z,97206.81
2022-11-22T23:01:17.550Z,97208.34
2022-11-22T23:03:48.864Z,97209.25
2022-11-22T23:06:17.601Z,97212.91
2022-11-22T23:08:47.361Z,97213.94
2022-11-22T23:11:16.758Z,97212.75
2022-11-22T23:13:45.303Z,97220.91
2022-11-22T23:16:15.191Z,97224.03
2022-11-22T23:18:45.819Z,97222.22
2022-11-22T23:21:15.927Z,97218.00
2022-11-22T23:23:46.985Z,97212.09
2022-11-22T23:26:15.028Z,97217.34
2022-11-22T23:28:42.930Z,97213.69
2022-11-22T23:31:12.449Z,97216.38
2022-11-22T23:33:40.864Z,97209.97
2022-11-22T23:36:12.525Z,97210.25
2022-11-22T23:38:40.816Z,97211.59
2022-11-22T23:41:10.100Z,97211.75
2022-11-22T23:43:37.998Z,97205.97
2022-11-22T23:46:06.145Z,97205.94
2022-11-22T23:48:34.092Z,97200.19
2022-11-22T23:51:04.274Z,97200.41
2022-11-22T23:53:33.705Z,97208.34
2022-11-22T23:56:06.659Z,97201.72
2022-11-22T23:58:34.961Z,97195.44
